Time;durP1;ratioP1;P1;durP2;ratioP2;P2;SDS_P1;SDS_P2;PMS_P1;PMS_P2;Temp;Humidity;BMP_temperature;BMP_pressure;BME280_temperature;BME280_humidity;BME280_pressure;Samples;Min_cycle;Max_cycle;Signal;HPM_P1;HPM_P2
2022/10/19 05:00:39;;;;;;;26.03;21.17;;;17.20;97.20;;;;;;1721318;28;20204;-76
2022/10/19 05:01:30;;;;;;;27.63;22.50;;;17.20;97.20;;;;;;1720707;28;20201;-75
2022/10/19 05:02:22;;;;;;;27.02;22.50;;;17.20;97.20;;;;;;1718623;28;20205;-77
2022/10/19 05:03:13;;;;;;;27.50;21.58;;;17.20;97.20;;;;;;1714320;28;20216;-75
2022/10/19 05:04:05;;;;;;;26.77;22.43;;;17.20;97.20;;;;;;1714326;28;20288;-75
2022/10/19 05:04:56;;;;;;;32.13;23.55;;;17.20;97.20;;;;;;1714325;28;20503;-75
2022/10/19 05:05:47;;;;;;;28.93;21.63;;;17.30;97.20;;;;;;1714283;28;20282;-74
2022/10/19 05:06:38;;;;;;;28.08;22.23;;;17.30;97.20;;;;;;1713935;28;20449;-74
2022/10/19 05:07:30;;;;;;;26.70;21.63;;;17.30;97.20;;;;;;1714244;28;20206;-76
2022/10/19 05:08:21;;;;;;;35.38;22.55;;;17.20;97.20;;;;;;1714324;28;20205;-75
2022/10/19 05:09:12;;;;;;;25.93;21.80;;;17.20;97.20;;;;;;1714301;28;20226;-76
2022/10/19 05:10:04;;;;;;;25.48;22.75;;;17.20;97.20;;;;;;1714286;28;20202;-77
2022/10/19 05:11:01;;;;;;;25.73;21.20;;;17.20;97.20;;;;;;1720426;28;20622;-75
2022/10/19 05:11:51;;;;;;;27.67;21.00;;;17.20;97.20;;;;;;1721008;28;20663;-76
2022/10/19 05:12:43;;;;;;;30.47;23.40;;;17.20;97.20;;;;;;1721034;28;20651;-76
2022/10/19 05:13:34;;;;;;;31.38;22.90;;;17.20;97.20;;;;;;1718531;28;20420;-73
2022/10/19 05:14:26;;;;;;;36.58;24.83;;;17.20;97.20;;;;;;1719419;28;20252;-73
2022/10/19 05:15:17;;;;;;;29.85;23.67;;;17.20;97.20;;;;;;1714189;28;20202;-73
2022/10/19 05:16:12;;;;;;;29.00;23.60;;;17.20;97.20;;;;;;1713976;28;20205;-78
2022/10/19 05:17:03;;;;;;;28.08;23.85;;;17.20;97.20;;;;;;1714268;28;20456;-74
2022/10/19 05:17:55;;;;;;;27.53;22.07;;;17.20;97.20;;;;;;1714239;28;20200;-74
2022/10/19 05:18:48;;;;;;;28.08;22.92;;;17.20;97.20;;;;;;1714222;28;20201;-75
2022/10/19 05:19:39;;;;;;;34.20;21.50;;;17.20;97.20;;;;;;1714222;28;20288;-73
2022/10/19 05:20:30;;;;;;;26.10;21.23;;;17.20;97.20;;;;;;1714139;28;20205;-75
2022/10/19 05:21:22;;;;;;;27.93;22.13;;;17.20;97.20;;;;;;1714209;28;20208;-73
2022/10/19 05:22:13;;;;;;;25.35;22.20;;;17.20;97.20;;;;;;1714179;28;20213;-74
2022/10/19 05:23:05;;;;;;;26.37;21.73;;;17.20;97.20;;;;;;1714141;28;20233;-75
2022/10/19 05:23:56;;;;;;;27.63;22.10;;;17.20;97.20;;;;;;1719372;28;20942;-74
2022/10/19 05:24:48;;;;;;;24.50;21.58;;;17.20;97.20;;;;;;1720903;28;20679;-74
2022/10/19 05:25:39;;;;;;;23.15;20.17;;;17.20;97.20;;;;;;1720872;28;20197;-74
2022/10/19 05:26:31;;;;;;;25.60;22.00;;;17.20;97.20;;;;;;1720580;28;20203;-75
2022/10/19 05:27:21;;;;;;;28.73;22.13;;;17.20;97.20;;;;;;1720797;28;20212;-74
2022/10/19 05:28:13;;;;;;;25.60;22.27;;;17.20;97.20;;;;;;1720872;28;20201;-75
2022/10/19 05:29:04;;;;;;;27.75;24.20;;;17.20;97.20;;;;;;1720904;28;20444;-74
2022/10/19 05:29:56;;;;;;;27.90;23.53;;;17.20;97.20;;;;;;1720854;28;20197;-74
2022/10/19 05:30:46;;;;;;;24.52;21.65;;;17.20;97.20;;;;;;1720669;28;20229;-74
2022/10/19 05:31:40;;;;;;;27.07;22.33;;;17.20;97.20;;;;;;1720835;28;20204;-74
2022/10/19 05:32:31;;;;;;;29.98;23.25;;;17.20;97.20;;;;;;1720863;28;20674;-75
2022/10/19 05:33:23;;;;;;;27.87;23.00;;;17.20;97.20;;;;;;1720587;28;20603;-75
2022/10/19 05:34:14;;;;;;;27.85;23.60;;;17.20;97.20;;;;;;1720848;28;20574;-74
2022/10/19 05:35:06;;;;;;;28.30;22.87;;;17.20;97.20;;;;;;1720947;28;20204;-74
2022/10/19 05:35:56;;;;;;;27.35;23.98;;;17.20;97.20;;;;;;1721005;28;20205;-74
2022/10/19 05:36:48;;;;;;;27.93;24.13;;;17.20;97.20;;;;;;1720463;28;20239;-75
2022/10/19 05:37:39;;;;;;;33.53;24.73;;;17.20;97.20;;;;;;1720781;28;20208;-75
2022/10/19 05:38:31;;;;;;;30.43;22.90;;;17.20;97.20;;;;;;1720912;28;20225;-74
2022/10/19 05:39:22;;;;;;;26.25;23.00;;;17.20;97.20;;;;;;1720869;28;20690;-75
2022/10/19 05:40:14;;;;;;;29.98;23.95;;;17.20;97.20;;;;;;1720730;28;20200;-75
2022/10/19 05:41:05;;;;;;;28.70;23.98;;;17.20;97.20;;;;;;1720824;28;20611;-75
2022/10/19 05:41:57;;;;;;;32.25;25.60;;;17.20;97.20;;;;;;1720797;28;20196;-74
2022/10/19 05:42:47;;;;;;;31.20;25.63;;;17.20;97.20;;;;;;1720806;28;20893;-75
2022/10/19 05:43:40;;;;;;;27.73;24.07;;;17.20;97.20;;;;;;1720836;28;20552;-75
2022/10/19 05:44:31;;;;;;;33.25;23.65;;;17.30;97.20;;;;;;1720718;28;20228;-76
2022/10/19 05:45:22;;;;;;;34.90;24.57;;;17.30;97.20;;;;;;1720613;28;20219;-75
2022/10/19 05:46:16;;;;;;;31.52;23.13;;;17.30;97.20;;;;;;1720372;28;20572;-74
2022/10/19 05:47:09;;;;;;;32.72;23.50;;;17.30;97.20;;;;;;1720774;28;20197;-74
2022/10/19 05:48:00;;;;;;;31.55;22.60;;;17.30;97.20;;;;;;1720740;28;20213;-74
2022/10/19 05:48:52;;;;;;;32.93;23.27;;;17.30;97.20;;;;;;1720698;28;20292;-74
2022/10/19 05:49:43;;;;;;;35.42;24.02;;;17.30;97.20;;;;;;1720823;28;20224;-75
2022/10/19 05:50:34;;;;;;;32.43;23.10;;;17.30;97.20;;;;;;1720633;28;20221;-75
2022/10/19 05:51:26;;;;;;;33.13;23.58;;;17.20;97.20;;;;;;1720795;28;20598;-75
2022/10/19 05:52:18;;;;;;;29.98;22.85;;;17.30;97.20;;;;;;1720666;28;20211;-75
2022/10/19 05:53:09;;;;;;;33.05;23.13;;;17.20;97.20;;;;;;1720734;28;20212;-75
2022/10/19 05:54:00;;;;;;;31.40;22.70;;;17.20;97.20;;;;;;1720706;28;20201;-75
2022/10/19 05:54:52;;;;;;;27.27;22.27;;;17.20;97.20;;;;;;1720646;28;20213;-75
2022/10/19 05:55:44;;;;;;;31.85;23.10;;;17.20;97.20;;;;;;1720816;28;20235;-74
2022/10/19 05:56:35;;;;;;;27.27;21.73;;;17.20;97.20;;;;;;1720390;28;20619;-75
2022/10/19 05:57:26;;;;;;;27.60;23.00;;;17.20;97.20;;;;;;1720644;28;20272;-75
2022/10/19 05:58:17;;;;;;;26.83;20.83;;;17.20;97.20;;;;;;1720659;28;20212;-75
2022/10/19 05:59:13;;;;;;;24.90;22.10;;;17.20;97.20;;;;;;1720575;28;20219;-75
2022/10/19 06:00:04;;;;;;;30.67;21.20;;;17.20;97.20;;;;;;1720436;28;20452;-74
2022/10/19 06:00:58;;;;;;;31.20;22.33;;;17.20;97.20;;;;;;1720607;28;20304;-74
2022/10/19 06:01:49;;;;;;;30.13;20.95;;;17.20;97.20;;;;;;1720300;28;20198;-75
2022/10/19 06:02:44;;;;;;;25.73;19.87;;;17.20;97.20;;;;;;1720665;28;20207;-74
2022/10/19 06:03:35;;;;;;;30.38;21.25;;;17.20;97.20;;;;;;1720692;28;20206;-75
2022/10/19 06:04:27;;;;;;;25.90;21.17;;;17.20;97.20;;;;;;1720828;28;20316;-74
2022/10/19 06:05:18;;;;;;;23.88;20.30;;;17.10;97.20;;;;;;1720613;28;20212;-75
2022/10/19 06:06:10;;;;;;;28.53;21.60;;;17.10;97.20;;;;;;1720369;28;20201;-74
2022/10/19 06:07:01;;;;;;;27.42;21.58;;;17.10;97.20;;;;;;1720664;28;20201;-75
2022/10/19 06:07:52;;;;;;;23.37;19.73;;;17.10;97.20;;;;;;1720631;28;20201;-75
2022/10/19 06:08:44;;;;;;;26.70;21.00;;;17.10;97.20;;;;;;1720615;28;20201;-74
2022/10/19 06:09:36;;;;;;;24.48;21.65;;;17.10;97.20;;;;;;1720681;28;20679;-75
2022/10/19 06:10:27;;;;;;;26.73;21.90;;;17.10;97.20;;;;;;1720598;28;20712;-74
2022/10/19 06:11:20;;;;;;;29.17;20.40;;;17.10;97.20;;;;;;1720671;28;20655;-74
2022/10/19 06:12:11;;;;;;;24.70;20.40;;;17.10;97.20;;;;;;1720708;28;20205;-76
2022/10/19 06:13:03;;;;;;;24.47;21.17;;;17.10;97.20;;;;;;1720627;28;20240;-74
2022/10/19 06:13:56;;;;;;;26.92;20.15;;;17.10;97.20;;;;;;1720621;28;20201;-74
2022/10/19 06:14:50;;;;;;;25.52;20.73;;;17.00;97.20;;;;;;1720731;28;20228;-75
2022/10/19 06:15:41;;;;;;;26.17;20.88;;;17.00;97.20;;;;;;1719969;28;20208;-75
2022/10/19 06:16:34;;;;;;;25.97;22.20;;;17.00;97.20;;;;;;1719402;28;20193;-74
2022/10/19 06:17:27;;;;;;;24.58;21.10;;;17.00;97.20;;;;;;1720592;28;20209;-74
2022/10/19 06:18:24;;;;;;;27.35;21.02;;;17.00;97.20;;;;;;1720590;28;20203;-74
2022/10/19 06:19:15;;;;;;;29.52;21.48;;;17.00;97.20;;;;;;1720565;28;20270;-75
2022/10/19 06:20:07;;;;;;;26.70;20.07;;;17.00;97.20;;;;;;1720663;28;20204;-75
2022/10/19 06:21:01;;;;;;;23.90;20.05;;;17.00;97.20;;;;;;1720513;28;20225;-74
2022/10/19 06:21:53;;;;;;;25.15;19.30;;;17.00;97.20;;;;;;1719165;28;20565;-75
2022/10/19 06:22:44;;;;;;;26.65;20.45;;;17.00;97.20;;;;;;1717995;28;20220;-75
2022/10/19 06:23:36;;;;;;;31.93;20.13;;;17.00;97.20;;;;;;1718310;28;20197;-73
2022/10/19 06:24:27;;;;;;;21.40;18.95;;;17.00;97.20;;;;;;1720302;28;20563;-74
2022/10/19 06:25:18;;;;;;;21.70;17.90;;;17.00;97.20;;;;;;1720377;28;20263;-74
2022/10/19 06:26:11;;;;;;;26.20;17.83;;;16.90;97.20;;;;;;1720012;28;20216;-75
2022/10/19 06:27:05;;;;;;;24.10;17.95;;;17.00;97.20;;;;;;1720137;28;20197;-75
2022/10/19 06:27:56;;;;;;;22.35;18.10;;;17.00;97.20;;;;;;1720276;28;20208;-75
2022/10/19 06:28:48;;;;;;;21.00;18.00;;;16.90;97.20;;;;;;1719873;28;20228;-75
2022/10/19 06:29:39;;;;;;;21.88;17.75;;;16.90;97.20;;;;;;1720385;28;20451;-74
2022/10/19 06:30:31;;;;;;;19.17;17.17;;;17.00;97.20;;;;;;1720254;28;20197;-75
2022/10/19 06:31:22;;;;;;;21.42;17.70;;;17.00;97.20;;;;;;1720452;28;20212;-74
2022/10/19 06:32:13;;;;;;;18.87;17.07;;;16.90;97.20;;;;;;1719806;28;20686;-74
2022/10/19 06:33:04;;;;;;;19.25;17.25;;;17.00;97.20;;;;;;1720143;28;20213;-73
2022/10/19 06:33:58;;;;;;;19.25;16.05;;;17.00;97.20;;;;;;1720454;28;20205;-74
2022/10/19 06:34:49;;;;;;;24.23;17.50;;;16.90;97.20;;;;;;1720390;28;20201;-75
2022/10/19 06:35:41;;;;;;;20.20;18.00;;;16.90;97.20;;;;;;1720322;28;20201;-74
2022/10/19 06:36:32;;;;;;;20.05;17.95;;;16.90;97.20;;;;;;1721130;28;20197;-75
2022/10/19 06:37:24;;;;;;;21.88;17.08;;;17.00;97.20;;;;;;1721638;28;20283;-75
2022/10/19 06:38:15;;;;;;;17.27;15.52;;;17.00;97.20;;;;;;1721640;28;20592;-74
2022/10/19 06:39:07;;;;;;;19.70;17.70;;;16.90;97.20;;;;;;1721731;28;20197;-74
2022/10/19 06:39:58;;;;;;;18.95;17.05;;;16.90;97.20;;;;;;1721557;28;20451;-74
2022/10/19 06:40:49;;;;;;;18.80;16.90;;;17.00;97.20;;;;;;1721371;28;20247;-76
2022/10/19 06:41:40;;;;;;;21.50;15.75;;;17.00;97.20;;;;;;1721066;28;20201;-74
2022/10/19 06:42:32;;;;;;;20.50;16.33;;;17.00;97.20;;;;;;1721452;28;20189;-75
2022/10/19 06:43:22;;;;;;;18.58;16.00;;;16.90;97.20;;;;;;1721178;28;20205;-75
2022/10/19 06:44:14;;;;;;;19.03;16.33;;;16.90;97.20;;;;;;1721080;28;20292;-74
2022/10/19 06:45:06;;;;;;;18.65;16.27;;;16.90;97.20;;;;;;1721028;28;20216;-75
2022/10/19 06:45:58;;;;;;;19.35;17.40;;;16.90;97.20;;;;;;1720805;28;20277;-75
2022/10/19 06:46:49;;;;;;;20.58;18.35;;;16.80;97.20;;;;;;1719949;28;20930;-75
2022/10/19 06:47:41;;;;;;;19.00;17.00;;;16.80;97.20;;;;;;1720536;28;20651;-74
2022/10/19 06:48:32;;;;;;;21.45;17.70;;;16.80;97.20;;;;;;1720717;28;20197;-75
2022/10/19 06:49:25;;;;;;;19.33;16.73;;;16.80;97.20;;;;;;1721142;28;20419;-75
2022/10/19 06:50:16;;;;;;;19.70;17.40;;;16.80;97.20;;;;;;1718666;28;20220;-74
2022/10/19 06:51:07;;;;;;;19.73;17.20;;;16.70;97.20;;;;;;1714158;28;20198;-75
2022/10/19 06:51:58;;;;;;;19.50;17.33;;;16.70;97.20;;;;;;1714406;28;20944;-76
2022/10/19 06:52:50;;;;;;;20.60;18.07;;;16.70;97.20;;;;;;1721162;28;20208;-74
2022/10/19 06:53:41;;;;;;;19.05;17.00;;;16.70;97.20;;;;;;1721008;28;20201;-75
2022/10/19 06:54:32;;;;;;;21.50;17.10;;;16.70;97.20;;;;;;1721009;28;20189;-74
2022/10/19 06:55:23;;;;;;;18.95;16.90;;;16.70;97.20;;;;;;1721068;28;20204;-75
2022/10/19 06:56:15;;;;;;;19.37;17.47;;;16.70;97.20;;;;;;1720666;28;20197;-74
2022/10/19 06:57:06;;;;;;;19.60;16.80;;;16.70;97.20;;;;;;1720749;28;20491;-74
2022/10/19 06:58:00;;;;;;;17.80;15.90;;;16.80;97.20;;;;;;1720873;28;20194;-74
2022/10/19 06:58:51;;;;;;;18.08;16.17;;;16.80;97.20;;;;;;1721490;28;20205;-74
2022/10/19 06:59:43;;;;;;;17.80;16.02;;;16.80;97.20;;;;;;1721777;28;20218;-74
2022/10/19 07:00:34;;;;;;;18.95;16.25;;;16.80;97.20;;;;;;1721613;28;20225;-74
2022/10/19 07:01:26;;;;;;;18.70;15.80;;;16.80;97.20;;;;;;1721657;28;20205;-75
2022/10/19 07:02:16;;;;;;;18.10;16.17;;;16.70;97.20;;;;;;1721662;28;20697;-75
2022/10/19 07:03:08;;;;;;;18.70;16.70;;;16.70;97.20;;;;;;1721688;28;20579;-74
2022/10/19 07:03:59;;;;;;;17.80;15.90;;;16.70;97.20;;;;;;1721612;28;20202;-76
2022/10/19 07:04:52;;;;;;;19.07;17.03;;;16.70;97.20;;;;;;1720618;28;20211;-74
2022/10/19 07:05:51;;;;;;;21.38;16.40;;;16.70;97.20;;;;;;1714922;28;20691;-75
2022/10/19 07:06:43;;;;;;;18.80;16.80;;;16.70;97.20;;;;;;1714250;28;20214;-74
2022/10/19 07:07:34;;;;;;;16.85;15.05;;;16.70;97.20;;;;;;1714827;28;20224;-74
2022/10/19 07:08:27;;;;;;;17.90;16.00;;;16.70;97.20;;;;;;1715022;28;20198;-75
2022/10/19 07:09:18;;;;;;;18.02;16.02;;;16.70;97.20;;;;;;1714834;28;20212;-74
2022/10/19 07:10:10;;;;;;;19.70;16.60;;;16.70;97.20;;;;;;1715021;28;20220;-75
2022/10/19 07:11:03;;;;;;;18.23;16.13;;;16.70;97.20;;;;;;1714788;28;20473;-74
2022/10/19 07:11:55;;;;;;;18.80;15.27;;;16.70;97.20;;;;;;1714940;28;20201;-74
2022/10/19 07:12:45;;;;;;;17.90;15.95;;;16.70;97.20;;;;;;1714951;28;20198;-75
2022/10/19 07:13:38;;;;;;;17.50;15.70;;;16.70;97.20;;;;;;1714962;28;20202;-75
2022/10/19 07:14:29;;;;;;;21.30;16.38;;;16.70;97.20;;;;;;1714906;28;20202;-75
2022/10/19 07:15:21;;;;;;;21.35;16.17;;;16.70;97.20;;;;;;1714816;28;20602;-74
2022/10/19 07:16:14;;;;;;;19.40;16.70;;;16.70;97.20;;;;;;1714450;28;20210;-74
2022/10/19 07:17:06;;;;;;;17.55;15.80;;;16.70;97.20;;;;;;1714592;28;20280;-74
2022/10/19 07:17:56;;;;;;;18.10;16.20;;;16.70;97.20;;;;;;1714725;28;20198;-75
2022/10/19 07:18:50;;;;;;;16.07;14.37;;;16.70;97.20;;;;;;1714963;28;20675;-74
2022/10/19 07:19:40;;;;;;;16.92;15.13;;;16.60;97.20;;;;;;1714909;28;20206;-74
2022/10/19 07:20:33;;;;;;;16.10;14.50;;;16.60;97.20;;;;;;1714880;28;20218;-74
2022/10/19 07:21:24;;;;;;;16.58;14.68;;;16.60;97.20;;;;;;1715292;28;20202;-74
2022/10/19 07:22:16;;;;;;;15.90;14.30;;;16.60;97.20;;;;;;1721518;28;20205;-74
2022/10/19 07:23:07;;;;;;;15.00;13.48;;;16.60;97.20;;;;;;1721570;28;20681;-74
2022/10/19 07:23:58;;;;;;;16.90;13.80;;;16.60;97.20;;;;;;1721391;28;20670;-76
2022/10/19 07:24:51;;;;;;;15.30;13.20;;;16.60;97.20;;;;;;1721615;28;20443;-75
2022/10/19 07:25:42;;;;;;;16.33;13.75;;;16.60;97.20;;;;;;1721467;28;20197;-74
2022/10/19 07:26:34;;;;;;;17.65;14.63;;;16.60;97.20;;;;;;1720992;28;20212;-74
2022/10/19 07:27:25;;;;;;;16.20;14.50;;;16.60;97.20;;;;;;1721380;28;20580;-75
2022/10/19 07:28:16;;;;;;;15.70;14.00;;;16.60;97.20;;;;;;1721621;28;20540;-74
2022/10/19 07:29:08;;;;;;;15.82;13.95;;;16.70;97.20;;;;;;1721606;28;20452;-74
2022/10/19 07:29:59;;;;;;;14.73;13.23;;;16.70;97.20;;;;;;1721429;28;20209;-75
2022/10/19 07:30:51;;;;;;;16.70;13.30;;;16.70;97.20;;;;;;1721313;28;20225;-75
2022/10/19 07:31:41;;;;;;;14.82;13.30;;;16.70;97.20;;;;;;1721371;28;20216;-74
2022/10/19 07:32:33;;;;;;;14.90;13.30;;;16.70;97.20;;;;;;1721513;28;20193;-74
2022/10/19 07:33:24;;;;;;;14.85;12.73;;;16.70;97.20;;;;;;1721465;28;20202;-76
2022/10/19 07:34:16;;;;;;;16.60;14.90;;;16.70;97.20;;;;;;1721402;28;20659;-75
2022/10/19 07:35:07;;;;;;;16.08;14.35;;;16.70;97.20;;;;;;1721565;28;20667;-74
2022/10/19 07:36:00;;;;;;;16.00;14.30;;;16.70;97.20;;;;;;1721418;28;20719;-74
2022/10/19 07:36:51;;;;;;;15.60;13.95;;;16.70;97.20;;;;;;1720619;28;20444;-74
2022/10/19 07:37:43;;;;;;;14.90;13.27;;;16.70;97.20;;;;;;1721226;28;20205;-74
2022/10/19 07:38:34;;;;;;;14.15;12.63;;;16.70;97.20;;;;;;1714922;28;20202;-75
2022/10/19 07:39:26;;;;;;;15.18;13.57;;;16.70;97.20;;;;;;1714828;28;20213;-75
2022/10/19 07:40:17;;;;;;;15.25;13.65;;;16.70;97.20;;;;;;1714596;28;20310;-75
2022/10/19 07:41:12;;;;;;;16.47;14.70;;;16.70;97.20;;;;;;1714787;28;20221;-75
2022/10/19 07:42:03;;;;;;;16.00;13.63;;;16.70;97.20;;;;;;1714830;28;20213;-75
2022/10/19 07:42:55;;;;;;;16.13;14.40;;;16.70;97.20;;;;;;1714665;28;20221;-77
2022/10/19 07:43:47;;;;;;;18.35;15.18;;;16.70;97.20;;;;;;1714835;28;20202;-74
2022/10/19 07:44:39;;;;;;;17.48;15.57;;;16.70;97.20;;;;;;1714637;28;20200;-75
2022/10/19 07:45:31;;;;;;;17.27;15.10;;;16.70;97.20;;;;;;1714650;28;20687;-74
2022/10/19 07:46:24;;;;;;;17.15;15.27;;;16.70;97.20;;;;;;1714022;28;20260;-75
2022/10/19 07:47:14;;;;;;;17.10;14.48;;;16.70;97.20;;;;;;1714154;28;20202;-75
2022/10/19 07:48:06;;;;;;;21.10;14.87;;;16.70;97.20;;;;;;1714587;28;20285;-74
2022/10/19 07:48:57;;;;;;;17.70;15.80;;;16.70;97.20;;;;;;1714611;28;20217;-75
2022/10/19 07:49:49;;;;;;;15.27;13.70;;;16.70;97.20;;;;;;1714750;28;20198;-75
2022/10/19 07:50:40;;;;;;;17.33;15.32;;;16.70;97.20;;;;;;1714533;28;20472;-75
2022/10/19 07:51:33;;;;;;;16.90;15.10;;;16.70;97.20;;;;;;1714735;28;20747;-76
2022/10/19 07:52:24;;;;;;;20.20;15.23;;;16.70;97.20;;;;;;1718557;28;20209;-74
2022/10/19 07:53:15;;;;;;;17.73;15.83;;;16.70;97.20;;;;;;1721318;28;20211;-75
2022/10/19 07:54:07;;;;;;;16.60;14.98;;;16.70;97.20;;;;;;1721398;28;20228;-74
2022/10/19 07:54:59;;;;;;;16.25;14.55;;;16.70;97.20;;;;;;1721342;28;20201;-74
2022/10/19 07:55:51;;;;;;;17.83;15.35;;;16.70;97.20;;;;;;1721341;28;20630;-74
2022/10/19 07:56:41;;;;;;;18.30;15.23;;;16.70;97.20;;;;;;1720628;28;20208;-74
2022/10/19 07:57:33;;;;;;;16.03;14.43;;;16.70;97.20;;;;;;1721271;28;20217;-74
2022/10/19 07:58:24;;;;;;;15.73;14.00;;;16.70;97.20;;;;;;1721276;28;20213;-75
2022/10/19 07:59:16;;;;;;;16.33;14.20;;;16.70;97.20;;;;;;1721373;28;20201;-75
2022/10/19 08:00:08;;;;;;;16.58;14.65;;;16.70;97.20;;;;;;1721331;28;20220;-75
2022/10/19 08:01:01;;;;;;;16.08;14.43;;;16.70;97.20;;;;;;1721174;28;20621;-75
2022/10/19 08:01:53;;;;;;;16.02;14.52;;;16.70;97.20;;;;;;1721355;28;20663;-74
2022/10/19 08:02:44;;;;;;;20.25;14.60;;;16.70;97.20;;;;;;1721314;28;20205;-75
2022/10/19 08:03:36;;;;;;;16.77;14.40;;;16.70;97.20;;;;;;1721247;28;20281;-75
2022/10/19 08:04:28;;;;;;;16.38;13.55;;;16.70;97.20;;;;;;1721261;28;20209;-75
2022/10/19 08:05:19;;;;;;;20.13;15.52;;;16.70;97.20;;;;;;1721230;28;20205;-75
2022/10/19 08:06:13;;;;;;;16.50;14.67;;;16.70;97.20;;;;;;1720786;28;20201;-74
2022/10/19 08:07:05;;;;;;;17.10;15.30;;;16.80;97.20;;;;;;1721108;28;20589;-75
2022/10/19 08:07:56;;;;;;;16.92;15.20;;;16.80;97.20;;;;;;1721041;28;20266;-75
2022/10/19 08:08:48;;;;;;;16.20;14.60;;;16.80;97.20;;;;;;1719607;28;20687;-74
2022/10/19 08:09:39;;;;;;;17.80;15.90;;;16.80;97.20;;;;;;1721221;28;20205;-74
2022/10/19 08:10:30;;;;;;;17.77;15.90;;;16.80;97.20;;;;;;1720873;28;20202;-74
2022/10/19 08:11:24;;;;;;;16.87;15.17;;;16.70;97.20;;;;;;1721249;28;20201;-73
2022/10/19 08:12:14;;;;;;;18.17;15.20;;;16.80;97.20;;;;;;1721261;28;20216;-74
2022/10/19 08:13:06;;;;;;;16.47;14.70;;;16.80;97.20;;;;;;1721333;28;20207;-74
2022/10/19 08:13:58;;;;;;;15.70;13.90;;;16.80;97.20;;;;;;1721213;28;20197;-74
2022/10/19 08:14:49;;;;;;;17.08;15.32;;;16.80;97.20;;;;;;1721286;28;20197;-75
2022/10/19 08:15:40;;;;;;;16.25;14.60;;;16.80;97.20;;;;;;1721237;28;20201;-73
2022/10/19 08:16:36;;;;;;;15.97;14.27;;;16.80;97.20;;;;;;1720836;28;20689;-75
2022/10/19 08:17:26;;;;;;;15.40;13.80;;;16.80;97.20;;;;;;1721220;28;20206;-75
2022/10/19 08:18:20;;;;;;;17.10;15.30;;;16.80;97.20;;;;;;1721112;28;20209;-74
2022/10/19 08:19:12;;;;;;;16.15;14.55;;;16.80;97.20;;;;;;1721199;28;20666;-75
2022/10/19 08:20:06;;;;;;;16.38;14.30;;;16.80;97.20;;;;;;1721190;28;20201;-74
2022/10/19 08:20:57;;;;;;;14.85;13.30;;;16.80;97.20;;;;;;1721054;28;20271;-74
2022/10/19 08:21:49;;;;;;;16.40;14.70;;;16.80;97.20;;;;;;1721153;28;20271;-76
2022/10/19 08:22:43;;;;;;;16.75;14.60;;;16.80;97.20;;;;;;1721093;28;20444;-74
2022/10/19 08:23:35;;;;;;;16.15;14.50;;;16.80;97.20;;;;;;1721209;28;20602;-74
2022/10/19 08:24:26;;;;;;;16.13;14.43;;;16.80;97.20;;;;;;1721207;28;20205;-76
2022/10/19 08:25:18;;;;;;;16.60;14.90;;;16.80;97.20;;;;;;1719418;28;20201;-75
2022/10/19 08:26:09;;;;;;;16.30;14.60;;;16.80;97.20;;;;;;1720660;28;20485;-75
2022/10/19 08:27:01;;;;;;;15.90;14.23;;;16.80;97.20;;;;;;1720930;28;20209;-75
2022/10/19 08:27:52;;;;;;;15.52;13.93;;;16.80;97.20;;;;;;1720984;28;20297;-75
2022/10/19 08:28:44;;;;;;;17.10;15.43;;;16.80;97.20;;;;;;1721169;28;20200;-74
2022/10/19 08:29:34;;;;;;;17.45;15.45;;;16.90;97.20;;;;;;1721102;28;20206;-74
2022/10/19 08:30:26;;;;;;;16.80;15.03;;;16.90;97.20;;;;;;1721097;28;20205;-74
2022/10/19 08:31:20;;;;;;;16.65;15.05;;;16.90;97.20;;;;;;1721090;28;20205;-75
2022/10/19 08:32:11;;;;;;;20.20;15.90;;;16.90;97.20;;;;;;1720766;28;20205;-74
2022/10/19 08:33:04;;;;;;;22.17;16.15;;;16.90;97.20;;;;;;1721132;28;20212;-75
2022/10/19 08:33:56;;;;;;;16.90;15.18;;;16.90;97.20;;;;;;1721091;28;20205;-75
2022/10/19 08:34:46;;;;;;;18.42;16.10;;;16.90;97.20;;;;;;1721116;28;20205;-74
2022/10/19 08:35:38;;;;;;;18.67;14.37;;;16.90;97.20;;;;;;1721151;28;20288;-75
2022/10/19 08:36:31;;;;;;;18.00;14.68;;;16.90;97.20;;;;;;1720722;28;20205;-75
2022/10/19 08:37:23;;;;;;;17.13;15.25;;;16.90;97.20;;;;;;1720743;28;20239;-75
2022/10/19 08:38:15;;;;;;;17.20;15.43;;;16.90;97.20;;;;;;1721004;28;20615;-74
2022/10/19 08:39:08;;;;;;;20.55;17.00;;;16.90;97.20;;;;;;1721168;28;20312;-75
2022/10/19 08:40:00;;;;;;;17.55;14.80;;;16.90;97.20;;;;;;1721008;28;20201;-75
2022/10/19 08:40:51;;;;;;;15.85;14.25;;;16.90;97.20;;;;;;1720682;28;20232;-75
2022/10/19 08:41:58;;;;;;;18.93;15.63;;;16.90;97.20;;;;;;1714277;28;20208;-74
2022/10/19 08:42:56;;;;;;;17.15;15.35;;;16.80;97.20;;;;;;1714408;28;20671;-75
2022/10/19 08:44:10;;;;;;;17.63;15.68;;;16.90;97.20;;;;;;1714411;28;20212;-76
2022/10/19 08:45:22;;;;;;;17.10;15.27;;;16.80;97.20;;;;;;1714332;28;20213;-74
2022/10/19 08:46:22;;;;;;;17.02;15.13;;;16.80;97.20;;;;;;1713833;28;20268;-75
2022/10/19 08:47:22;;;;;;;17.92;15.20;;;16.80;97.20;;;;;;1720003;28;20201;-74
2022/10/19 08:48:25;;;;;;;17.58;15.32;;;16.80;97.20;;;;;;1720877;28;20205;-74
2022/10/19 08:49:21;;;;;;;17.95;15.25;;;16.80;97.20;;;;;;1721166;28;20724;-75
2022/10/19 08:50:19;;;;;;;16.35;14.75;;;16.90;97.20;;;;;;1720950;28;20694;-75
2022/10/19 08:51:12;;;;;;;20.50;15.25;;;16.90;97.20;;;;;;1720678;28;20281;-75
2022/10/19 08:52:06;;;;;;;17.02;15.35;;;16.80;97.20;;;;;;1720922;28;20333;-75
2022/10/19 08:53:02;;;;;;;16.13;14.50;;;16.90;97.20;;;;;;1720957;28;20205;-75
2022/10/19 08:53:57;;;;;;;21.08;15.95;;;16.90;97.20;;;;;;1720991;28;20205;-75
2022/10/19 08:54:51;;;;;;;16.55;14.75;;;16.90;97.20;;;;;;1720965;28;20201;-75
2022/10/19 08:55:54;;;;;;;16.10;14.48;;;16.90;97.20;;;;;;1720935;28;20200;-75
2022/10/19 08:56:49;;;;;;;16.00;14.40;;;16.90;97.20;;;;;;1720319;28;20667;-75
2022/10/19 08:57:44;;;;;;;16.77;14.85;;;16.90;97.20;;;;;;1720713;28;20204;-74
2022/10/19 08:58:47;;;;;;;15.25;13.65;;;16.90;97.20;;;;;;1720129;28;20212;-75
2022/10/19 08:59:43;;;;;;;15.95;14.30;;;16.90;97.20;;;;;;1720910;28;20216;-75
2022/10/19 09:00:41;;;;;;;15.05;13.23;;;16.90;97.20;;;;;;1720583;28;20225;-74
2022/10/19 09:01:43;;;;;;;15.23;13.75;;;16.90;97.20;;;;;;1714345;28;20264;-75
2022/10/19 09:02:54;;;;;;;14.70;13.38;;;16.90;97.20;;;;;;1714328;28;20217;-75
2022/10/19 09:03:49;;;;;;;13.35;11.93;;;16.90;97.20;;;;;;1715266;28;20205;-74
2022/10/19 09:04:44;;;;;;;14.45;13.15;;;16.90;97.20;;;;;;1714197;28;20564;-74
2022/10/19 09:05:43;;;;;;;14.45;12.80;;;17.00;97.20;;;;;;1714108;28;20209;-75
2022/10/19 09:06:44;;;;;;;13.85;12.38;;;16.90;97.20;;;;;;1713553;28;20202;-75
2022/10/19 09:07:43;;;;;;;16.10;14.00;;;16.90;97.20;;;;;;1714125;28;20256;-74
2022/10/19 09:08:38;;;;;;;14.65;12.85;;;16.90;97.20;;;;;;1714227;28;20233;-74
2022/10/19 09:09:33;;;;;;;15.13;13.55;;;17.00;97.20;;;;;;1714246;28;20248;-75
2022/10/19 09:10:28;;;;;;;14.30;12.90;;;17.00;97.20;;;;;;1714164;28;20205;-75
2022/10/19 09:11:24;;;;;;;14.15;12.85;;;17.00;97.20;;;;;;1714106;28;20210;-74
2022/10/19 09:12:21;;;;;;;15.52;14.02;;;17.00;97.20;;;;;;1714293;28;20580;-74
2022/10/19 09:13:19;;;;;;;13.80;12.40;;;17.00;97.20;;;;;;1714284;28;20207;-75
2022/10/19 09:14:16;;;;;;;15.32;13.93;;;17.00;97.20;;;;;;1714229;28;20249;-74
2022/10/19 09:15:12;;;;;;;15.32;13.73;;;17.00;97.20;;;;;;1714364;28;20206;-75
2022/10/19 09:16:03;;;;;;;13.68;12.38;;;17.10;97.20;;;;;;1714113;28;20229;-74
2022/10/19 09:17:01;;;;;;;14.73;13.27;;;17.10;97.20;;;;;;1713463;28;20202;-74
2022/10/19 09:17:51;;;;;;;14.30;12.90;;;17.10;97.20;;;;;;1717163;28;20198;-75
2022/10/19 09:18:45;;;;;;;14.17;12.67;;;17.10;97.20;;;;;;1720776;28;20207;-75
2022/10/19 09:19:36;;;;;;;14.98;13.60;;;17.10;97.20;;;;;;1720872;28;20267;-74
2022/10/19 09:20:34;;;;;;;13.97;12.60;;;17.10;97.20;;;;;;1720841;28;20308;-75
2022/10/19 09:21:32;;;;;;;14.90;13.45;;;17.10;97.20;;;;;;1720896;28;20263;-75
2022/10/19 09:22:29;;;;;;;13.32;12.13;;;17.10;97.20;;;;;;1720887;28;20201;-74
2022/10/19 09:23:25;;;;;;;14.57;13.07;;;17.10;97.20;;;;;;1720840;28;20671;-75
2022/10/19 09:24:28;;;;;;;13.13;11.82;;;17.10;97.20;;;;;;1720720;28;20201;-76
2022/10/19 09:25:22;;;;;;;14.65;12.95;;;17.10;97.20;;;;;;1720818;28;20210;-75
2022/10/19 09:26:16;;;;;;;15.13;13.23;;;17.10;97.20;;;;;;1720332;28;20205;-75
2022/10/19 09:27:15;;;;;;;14.38;12.98;;;17.10;97.20;;;;;;1720603;28;20212;-74
2022/10/19 09:28:19;;;;;;;12.80;11.60;;;17.10;97.20;;;;;;1720784;28;20212;-74